sensor_id;sensor_type;location;lat;lon;timestamp;P1;durP1;ratioP1;P2;durP2;ratioP2
21426;SDS011;10874;49.452;11.050;2023-06-26T00:01:04;7.67;;;6.97;;
21426;SDS011;10874;49.452;11.050;2023-06-26T00:03:32;7.80;;;7.10;;
21426;SDS011;10874;49.452;11.050;2023-06-26T00:05:59;8.20;;;7.40;;
21426;SDS011;10874;49.452;11.050;2023-06-26T00:08:28;9.00;;;8.13;;
21426;SDS011;10874;49.452;11.050;2023-06-26T00:10:54;8.43;;;7.07;;
21426;SDS011;10874;49.452;11.050;2023-06-26T00:13:22;8.50;;;7.70;;
21426;SDS011;10874;49.452;11.050;2023-06-26T00:15:50;8.53;;;7.63;;
21426;SDS011;10874;49.452;11.050;2023-06-26T00:18:16;8.27;;;7.47;;
21426;SDS011;10874;49.452;11.050;2023-06-26T00:20:43;8.27;;;7.57;;
21426;SDS011;10874;49.452;11.050;2023-06-26T00:23:11;8.60;;;7.70;;
21426;SDS011;10874;49.452;11.050;2023-06-26T00:25:37;8.47;;;7.67;;
21426;SDS011;10874;49.452;11.050;2023-06-26T00:28:04;8.03;;;7.33;;
21426;SDS011;10874;49.452;11.050;2023-06-26T00:30:31;8.60;;;7.77;;
21426;SDS011;10874;49.452;11.050;2023-06-26T00:32:58;7.97;;;7.17;;
21426;SDS011;10874;49.452;11.050;2023-06-26T00:35:24;8.80;;;7.90;;
21426;SDS011;10874;49.452;11.050;2023-06-26T00:37:51;7.80;;;7.10;;
21426;SDS011;10874;49.452;11.050;2023-06-26T00:40:18;7.90;;;7.20;;
21426;SDS011;10874;49.452;11.050;2023-06-26T00:42:44;7.80;;;7.00;;
21426;SDS011;10874;49.452;11.050;2023-06-26T00:45:13;8.93;;;7.43;;
21426;SDS011;10874;49.452;11.050;2023-06-26T00:47:40;7.80;;;7.00;;
21426;SDS011;10874;49.452;11.050;2023-06-26T00:50:07;7.77;;;7.07;;
21426;SDS011;10874;49.452;11.050;2023-06-26T00:52:35;7.20;;;6.50;;
21426;SDS011;10874;49.452;11.050;2023-06-26T00:55:02;7.93;;;7.17;;
21426;SDS011;10874;49.452;11.050;2023-06-26T00:57:29;7.87;;;7.07;;
21426;SDS011;10874;49.452;11.050;2023-06-26T00:59:56;8.33;;;7.43;;
21426;SDS011;10874;49.452;11.050;2023-06-26T01:02:23;8.33;;;7.57;;
21426;SDS011;10874;49.452;11.050;2023-06-26T01:04:50;9.17;;;7.90;;
21426;SDS011;10874;49.452;11.050;2023-06-26T01:07:18;8.83;;;7.17;;
21426;SDS011;10874;49.452;11.050;2023-06-26T01:09:47;7.77;;;7.03;;
21426;SDS011;10874;49.452;11.050;2023-06-26T01:12:14;9.17;;;7.10;;
21426;SDS011;10874;49.452;11.050;2023-06-26T01:14:41;8.00;;;7.20;;
21426;SDS011;10874;49.452;11.050;2023-06-26T01:17:08;9.00;;;7.43;;
21426;SDS011;10874;49.452;11.050;2023-06-26T01:19:38;9.27;;;7.23;;
21426;SDS011;10874;49.452;11.050;2023-06-26T01:22:53;8.10;;;7.30;;
21426;SDS011;10874;49.452;11.050;2023-06-26T01:24:56;8.17;;;7.37;;
21426;SDS011;10874;49.452;11.050;2023-06-26T01:27:24;7.90;;;7.20;;
21426;SDS011;10874;49.452;11.050;2023-06-26T01:29:51;8.17;;;6.90;;
21426;SDS011;10874;49.452;11.050;2023-06-26T01:32:18;7.37;;;6.77;;
21426;SDS011;10874;49.452;11.050;2023-06-26T01:34:45;7.60;;;6.43;;
21426;SDS011;10874;49.452;11.050;2023-06-26T01:37:12;7.73;;;6.77;;
21426;SDS011;10874;49.452;11.050;2023-06-26T01:39:39;8.10;;;7.30;;
21426;SDS011;10874;49.452;11.050;2023-06-26T01:42:06;8.00;;;7.20;;
21426;SDS011;10874;49.452;11.050;2023-06-26T01:44:34;7.77;;;7.07;;
21426;SDS011;10874;49.452;11.050;2023-06-26T01:47:02;7.43;;;6.63;;
21426;SDS011;10874;49.452;11.050;2023-06-26T01:49:32;7.50;;;6.80;;
21426;SDS011;10874;49.452;11.050;2023-06-26T01:52:07;8.93;;;7.70;;
21426;SDS011;10874;49.452;11.050;2023-06-26T01:54:37;7.97;;;7.17;;
21426;SDS011;10874;49.452;11.050;2023-06-26T01:57:05;8.20;;;7.37;;
21426;SDS011;10874;49.452;11.050;2023-06-26T01:59:33;7.97;;;7.20;;
21426;SDS011;10874;49.452;11.050;2023-06-26T02:02:01;10.07;;;7.63;;
21426;SDS011;10874;49.452;11.050;2023-06-26T02:04:28;8.60;;;7.70;;
21426;SDS011;10874;49.452;11.050;2023-06-26T02:06:55;7.60;;;6.80;;
21426;SDS011;10874;49.452;11.050;2023-06-26T02:09:21;8.00;;;7.30;;
21426;SDS011;10874;49.452;11.050;2023-06-26T02:11:48;8.87;;;7.47;;
21426;SDS011;10874;49.452;11.050;2023-06-26T02:14:15;8.07;;;6.77;;
21426;SDS011;10874;49.452;11.050;2023-06-26T02:16:42;8.83;;;7.30;;
21426;SDS011;10874;49.452;11.050;2023-06-26T02:19:08;10.53;;;7.47;;
21426;SDS011;10874;49.452;11.050;2023-06-26T02:21:35;8.50;;;7.60;;
21426;SDS011;10874;49.452;11.050;2023-06-26T02:24:02;9.07;;;6.93;;
21426;SDS011;10874;49.452;11.050;2023-06-26T02:26:32;8.17;;;7.30;;
21426;SDS011;10874;49.452;11.050;2023-06-26T02:28:59;7.63;;;6.83;;
21426;SDS011;10874;49.452;11.050;2023-06-26T02:31:25;8.27;;;7.53;;
21426;SDS011;10874;49.452;11.050;2023-06-26T02:33:54;8.30;;;6.97;;
21426;SDS011;10874;49.452;11.050;2023-06-26T02:36:21;9.20;;;7.60;;
21426;SDS011;10874;49.452;11.050;2023-06-26T02:38:48;10.67;;;7.93;;
21426;SDS011;10874;49.452;11.050;2023-06-26T02:41:15;8.60;;;7.80;;
21426;SDS011;10874;49.452;11.050;2023-06-26T02:43:42;8.33;;;7.47;;
21426;SDS011;10874;49.452;11.050;2023-06-26T02:46:08;8.47;;;7.60;;
21426;SDS011;10874;49.452;11.050;2023-06-26T02:48:35;8.63;;;7.83;;
21426;SDS011;10874;49.452;11.050;2023-06-26T02:51:02;8.60;;;7.80;;
21426;SDS011;10874;49.452;11.050;2023-06-26T02:53:31;8.63;;;7.73;;
21426;SDS011;10874;49.452;11.050;2023-06-26T02:55:57;8.87;;;7.90;;
21426;SDS011;10874;49.452;11.050;2023-06-26T02:58:24;8.87;;;7.97;;
21426;SDS011;10874;49.452;11.050;2023-06-26T03:00:51;7.90;;;7.10;;
21426;SDS011;10874;49.452;11.050;2023-06-26T03:03:20;8.37;;;7.57;;
21426;SDS011;10874;49.452;11.050;2023-06-26T03:05:47;8.40;;;7.60;;
21426;SDS011;10874;49.452;11.050;2023-06-26T03:08:13;9.47;;;7.93;;
21426;SDS011;10874;49.452;11.050;2023-06-26T03:10:40;8.50;;;7.70;;
21426;SDS011;10874;49.452;11.050;2023-06-26T03:13:08;7.87;;;6.93;;
21426;SDS011;10874;49.452;11.050;2023-06-26T03:15:34;10.27;;;7.93;;
21426;SDS011;10874;49.452;11.050;2023-06-26T03:18:01;8.80;;;7.90;;
21426;SDS011;10874;49.452;11.050;2023-06-26T03:20:28;7.77;;;6.97;;
21426;SDS011;10874;49.452;11.050;2023-06-26T03:22:57;7.90;;;7.20;;
21426;SDS011;10874;49.452;11.050;2023-06-26T03:25:24;8.60;;;7.80;;
21426;SDS011;10874;49.452;11.050;2023-06-26T03:28:00;8.37;;;7.57;;
21426;SDS011;10874;49.452;11.050;2023-06-26T03:30:27;8.07;;;7.17;;
21426;SDS011;10874;49.452;11.050;2023-06-26T03:32:57;8.57;;;7.67;;
21426;SDS011;10874;49.452;11.050;2023-06-26T03:35:24;8.17;;;7.33;;
21426;SDS011;10874;49.452;11.050;2023-06-26T03:37:51;8.77;;;7.87;;
21426;SDS011;10874;49.452;11.050;2023-06-26T03:40:18;8.67;;;7.80;;
21426;SDS011;10874;49.452;11.050;2023-06-26T03:42:46;8.67;;;7.77;;
21426;SDS011;10874;49.452;11.050;2023-06-26T03:45:12;8.30;;;7.37;;
21426;SDS011;10874;49.452;11.050;2023-06-26T03:47:42;8.53;;;7.73;;
21426;SDS011;10874;49.452;11.050;2023-06-26T03:50:09;8.37;;;7.57;;
21426;SDS011;10874;49.452;11.050;2023-06-26T03:52:37;8.40;;;7.60;;
21426;SDS011;10874;49.452;11.050;2023-06-26T03:55:03;7.70;;;6.90;;
21426;SDS011;10874;49.452;11.050;2023-06-26T03:57:30;7.97;;;7.17;;
21426;SDS011;10874;49.452;11.050;2023-06-26T03:59:57;8.07;;;7.17;;
21426;SDS011;10874;49.452;11.050;2023-06-26T04:02:24;6.63;;;5.93;;
21426;SDS011;10874;49.452;11.050;2023-06-26T04:04:50;8.30;;;6.67;;
21426;SDS011;10874;49.452;11.050;2023-06-26T04:07:18;7.83;;;7.13;;
21426;SDS011;10874;49.452;11.050;2023-06-26T04:09:45;8.03;;;7.23;;
21426;SDS011;10874;49.452;11.050;2023-06-26T04:12:12;7.77;;;6.70;;
21426;SDS011;10874;49.452;11.050;2023-06-26T04:14:39;9.33;;;7.07;;
21426;SDS011;10874;49.452;11.050;2023-06-26T04:17:06;8.80;;;7.37;;
21426;SDS011;10874;49.452;11.050;2023-06-26T04:19:33;8.17;;;6.60;;
21426;SDS011;10874;49.452;11.050;2023-06-26T04:22:00;8.00;;;7.20;;
21426;SDS011;10874;49.452;11.050;2023-06-26T04:24:27;9.43;;;6.47;;
21426;SDS011;10874;49.452;11.050;2023-06-26T04:26:54;8.63;;;7.00;;
21426;SDS011;10874;49.452;11.050;2023-06-26T04:29:24;9.37;;;7.80;;
21426;SDS011;10874;49.452;11.050;2023-06-26T04:31:52;10.40;;;8.03;;
21426;SDS011;10874;49.452;11.050;2023-06-26T04:34:19;8.53;;;7.33;;
21426;SDS011;10874;49.452;11.050;2023-06-26T04:36:45;8.07;;;7.27;;
21426;SDS011;10874;49.452;11.050;2023-06-26T04:39:14;9.20;;;7.00;;
21426;SDS011;10874;49.452;11.050;2023-06-26T04:41:41;7.63;;;6.83;;
21426;SDS011;10874;49.452;11.050;2023-06-26T04:44:08;7.37;;;6.67;;
21426;SDS011;10874;49.452;11.050;2023-06-26T04:46:35;10.00;;;7.03;;
21426;SDS011;10874;49.452;11.050;2023-06-26T04:49:01;7.90;;;7.10;;
21426;SDS011;10874;49.452;11.050;2023-06-26T04:51:29;7.73;;;7.03;;
21426;SDS011;10874;49.452;11.050;2023-06-26T04:53:56;7.90;;;7.20;;
21426;SDS011;10874;49.452;11.050;2023-06-26T04:56:23;7.63;;;6.80;;
21426;SDS011;10874;49.452;11.050;2023-06-26T04:58:50;8.27;;;7.47;;
21426;SDS011;10874;49.452;11.050;2023-06-26T05:01:16;7.40;;;6.43;;
21426;SDS011;10874;49.452;11.050;2023-06-26T05:03:43;8.03;;;7.00;;
21426;SDS011;10874;49.452;11.050;2023-06-26T05:06:11;8.37;;;7.50;;
21426;SDS011;10874;49.452;11.050;2023-06-26T05:08:38;7.60;;;6.90;;
21426;SDS011;10874;49.452;11.050;2023-06-26T05:11:05;8.00;;;6.70;;
21426;SDS011;10874;49.452;11.050;2023-06-26T05:13:32;8.53;;;7.20;;
21426;SDS011;10874;49.452;11.050;2023-06-26T05:15:59;7.17;;;6.50;;
21426;SDS011;10874;49.452;11.050;2023-06-26T05:18:25;7.57;;;6.77;;
21426;SDS011;10874;49.452;11.050;2023-06-26T05:20:52;7.50;;;6.60;;
21426;SDS011;10874;49.452;11.050;2023-06-26T05:23:19;9.03;;;7.30;;
21426;SDS011;10874;49.452;11.050;2023-06-26T05:25:46;7.17;;;6.50;;
21426;SDS011;10874;49.452;11.050;2023-06-26T05:28:14;7.10;;;6.40;;
21426;SDS011;10874;49.452;11.050;2023-06-26T05:30:42;7.13;;;6.43;;
21426;SDS011;10874;49.452;11.050;2023-06-26T05:33:10;6.87;;;6.27;;
21426;SDS011;10874;49.452;11.050;2023-06-26T05:35:37;7.67;;;6.63;;
21426;SDS011;10874;49.452;11.050;2023-06-26T05:38:04;7.60;;;6.90;;
21426;SDS011;10874;49.452;11.050;2023-06-26T05:40:31;7.50;;;6.70;;
21426;SDS011;10874;49.452;11.050;2023-06-26T05:42:58;7.53;;;6.43;;
21426;SDS011;10874;49.452;11.050;2023-06-26T05:45:25;8.30;;;6.47;;
21426;SDS011;10874;49.452;11.050;2023-06-26T05:47:52;7.90;;;7.10;;
21426;SDS011;10874;49.452;11.050;2023-06-26T05:50:19;7.70;;;7.00;;
21426;SDS011;10874;49.452;11.050;2023-06-26T05:52:46;7.07;;;6.37;;
21426;SDS011;10874;49.452;11.050;2023-06-26T05:55:13;9.27;;;6.60;;
21426;SDS011;10874;49.452;11.050;2023-06-26T05:57:40;7.27;;;6.57;;
21426;SDS011;10874;49.452;11.050;2023-06-26T06:00:07;9.87;;;6.40;;
21426;SDS011;10874;49.452;11.050;2023-06-26T06:02:42;8.93;;;6.60;;
21426;SDS011;10874;49.452;11.050;2023-06-26T06:05:09;7.63;;;6.57;;
21426;SDS011;10874;49.452;11.050;2023-06-26T06:07:36;7.47;;;6.73;;
21426;SDS011;10874;49.452;11.050;2023-06-26T06:10:03;7.67;;;6.97;;
21426;SDS011;10874;49.452;11.050;2023-06-26T06:12:30;7.90;;;7.15;;
21426;SDS011;10874;49.452;11.050;2023-06-26T06:14:57;7.97;;;7.18;;
21426;SDS011;10874;49.452;11.050;2023-06-26T06:17:24;7.15;;;6.45;;
21426;SDS011;10874;49.452;11.050;2023-06-26T06:19:50;7.50;;;6.80;;
21426;SDS011;10874;49.452;11.050;2023-06-26T06:22:17;7.75;;;6.40;;
21426;SDS011;10874;49.452;11.050;2023-06-26T06:24:44;7.45;;;6.75;;
21426;SDS011;10874;49.452;11.050;2023-06-26T06:27:12;7.38;;;6.57;;
21426;SDS011;10874;49.452;11.050;2023-06-26T06:29:39;8.35;;;6.68;;
21426;SDS011;10874;49.452;11.050;2023-06-26T06:32:06;9.05;;;6.97;;
21426;SDS011;10874;49.452;11.050;2023-06-26T06:34:33;7.22;;;6.50;;
21426;SDS011;10874;49.452;11.050;2023-06-26T06:37:01;8.02;;;6.65;;
21426;SDS011;10874;49.452;11.050;2023-06-26T06:39:28;7.22;;;6.53;;
21426;SDS011;10874;49.452;11.050;2023-06-26T06:41:55;8.85;;;6.93;;
21426;SDS011;10874;49.452;11.050;2023-06-26T06:44:22;8.35;;;7.32;;
21426;SDS011;10874;49.452;11.050;2023-06-26T06:46:49;7.50;;;6.80;;
21426;SDS011;10874;49.452;11.050;2023-06-26T06:49:15;8.13;;;7.32;;
21426;SDS011;10874;49.452;11.050;2023-06-26T06:51:42;7.63;;;6.75;;
21426;SDS011;10874;49.452;11.050;2023-06-26T06:54:09;7.45;;;6.75;;
21426;SDS011;10874;49.452;11.050;2023-06-26T06:56:35;7.38;;;6.68;;
21426;SDS011;10874;49.452;11.050;2023-06-26T06:59:02;7.93;;;6.72;;
21426;SDS011;10874;49.452;11.050;2023-06-26T07:01:29;9.40;;;7.15;;
21426;SDS011;10874;49.452;11.050;2023-06-26T07:03:56;7.65;;;6.32;;
21426;SDS011;10874;49.452;11.050;2023-06-26T07:06:24;8.52;;;6.70;;
21426;SDS011;10874;49.452;11.050;2023-06-26T07:08:51;8.07;;;6.80;;
21426;SDS011;10874;49.452;11.050;2023-06-26T07:11:17;8.82;;;7.35;;
21426;SDS011;10874;49.452;11.050;2023-06-26T07:13:44;9.90;;;7.28;;
21426;SDS011;10874;49.452;11.050;2023-06-26T07:16:14;9.32;;;7.18;;
21426;SDS011;10874;49.452;11.050;2023-06-26T07:18:42;8.85;;;6.68;;
21426;SDS011;10874;49.452;11.050;2023-06-26T07:21:10;7.70;;;7.07;;
21426;SDS011;10874;49.452;11.050;2023-06-26T07:23:36;7.60;;;6.90;;
21426;SDS011;10874;49.452;11.050;2023-06-26T07:26:03;7.18;;;6.57;;
21426;SDS011;10874;49.452;11.050;2023-06-26T07:28:30;8.23;;;7.43;;
21426;SDS011;10874;49.452;11.050;2023-06-26T07:30:57;7.95;;;7.03;;
21426;SDS011;10874;49.452;11.050;2023-06-26T07:33:23;9.85;;;7.63;;
21426;SDS011;10874;49.452;11.050;2023-06-26T07:35:50;7.93;;;6.93;;
21426;SDS011;10874;49.452;11.050;2023-06-26T07:38:17;7.90;;;7.20;;
21426;SDS011;10874;49.452;11.050;2023-06-26T07:40:44;8.68;;;7.10;;
21426;SDS011;10874;49.452;11.050;2023-06-26T07:43:10;8.02;;;7.22;;
21426;SDS011;10874;49.452;11.050;2023-06-26T07:45:37;9.23;;;7.15;;
21426;SDS011;10874;49.452;11.050;2023-06-26T07:48:05;8.88;;;7.38;;
21426;SDS011;10874;49.452;11.050;2023-06-26T07:50:32;10.43;;;7.45;;
21426;SDS011;10874;49.452;11.050;2023-06-26T07:52:59;9.25;;;7.38;;
21426;SDS011;10874;49.452;11.050;2023-06-26T07:55:25;8.20;;;7.43;;
21426;SDS011;10874;49.452;11.050;2023-06-26T07:57:53;8.07;;;7.32;;
21426;SDS011;10874;49.452;11.050;2023-06-26T08:00:21;10.02;;;7.70;;
21426;SDS011;10874;49.452;11.050;2023-06-26T08:02:51;7.97;;;7.28;;
21426;SDS011;10874;49.452;11.050;2023-06-26T08:05:18;8.80;;;7.90;;
21426;SDS011;10874;49.452;11.050;2023-06-26T08:07:45;7.57;;;6.88;;
21426;SDS011;10874;49.452;11.050;2023-06-26T08:10:12;8.65;;;6.90;;
21426;SDS011;10874;49.452;11.050;2023-06-26T08:12:39;7.97;;;7.18;;
21426;SDS011;10874;49.452;11.050;2023-06-26T08:15:07;9.60;;;7.80;;
21426;SDS011;10874;49.452;11.050;2023-06-26T08:17:34;8.25;;;7.00;;
21426;SDS011;10874;49.452;11.050;2023-06-26T08:20:01;10.07;;;7.50;;
21426;SDS011;10874;49.452;11.050;2023-06-26T08:22:28;9.20;;;8.30;;
21426;SDS011;10874;49.452;11.050;2023-06-26T08:24:55;8.55;;;7.78;;
21426;SDS011;10874;49.452;11.050;2023-06-26T08:27:22;9.38;;;7.72;;
21426;SDS011;10874;49.452;11.050;2023-06-26T08:29:49;7.55;;;6.80;;
21426;SDS011;10874;49.452;11.050;2023-06-26T08:32:15;8.13;;;7.35;;
21426;SDS011;10874;49.452;11.050;2023-06-26T08:34:42;8.13;;;7.28;;
21426;SDS011;10874;49.452;11.050;2023-06-26T08:37:09;8.40;;;7.70;;
21426;SDS011;10874;49.452;11.050;2023-06-26T08:39:36;7.97;;;7.28;;
21426;SDS011;10874;49.452;11.050;2023-06-26T08:42:02;8.57;;;7.47;;
21426;SDS011;10874;49.452;11.050;2023-06-26T08:44:29;8.05;;;7.25;;
21426;SDS011;10874;49.452;11.050;2023-06-26T08:46:56;9.38;;;7.57;;
21426;SDS011;10874;49.452;11.050;2023-06-26T08:49:25;8.80;;;7.88;;
21426;SDS011;10874;49.452;11.050;2023-06-26T08:51:56;9.13;;;7.15;;
21426;SDS011;10874;49.452;11.050;2023-06-26T08:54:26;7.75;;;7.05;;
21426;SDS011;10874;49.452;11.050;2023-06-26T08:56:55;8.18;;;7.38;;
21426;SDS011;10874;49.452;11.050;2023-06-26T08:59:22;8.95;;;7.20;;
21426;SDS011;10874;49.452;11.050;2023-06-26T09:01:50;8.38;;;7.57;;
21426;SDS011;10874;49.452;11.050;2023-06-26T09:04:17;7.80;;;7.00;;
21426;SDS011;10874;49.452;11.050;2023-06-26T09:06:44;8.15;;;7.45;;
21426;SDS011;10874;49.452;11.050;2023-06-26T09:09:11;7.60;;;6.90;;
21426;SDS011;10874;49.452;11.050;2023-06-26T09:11:38;7.43;;;6.82;;
21426;SDS011;10874;49.452;11.050;2023-06-26T09:14:05;7.72;;;7.03;;
21426;SDS011;10874;49.452;11.050;2023-06-26T09:16:39;7.40;;;6.65;;
21426;SDS011;10874;49.452;11.050;2023-06-26T09:19:08;7.65;;;6.97;;
21426;SDS011;10874;49.452;11.050;2023-06-26T09:21:35;6.97;;;6.38;;
21426;SDS011;10874;49.452;11.050;2023-06-26T09:24:02;7.10;;;6.50;;
21426;SDS011;10874;49.452;11.050;2023-06-26T09:26:28;7.78;;;7.07;;
21426;SDS011;10874;49.452;11.050;2023-06-26T09:28:55;8.27;;;7.57;;
21426;SDS011;10874;49.452;11.050;2023-06-26T09:31:23;6.75;;;6.10;;
21426;SDS011;10874;49.452;11.050;2023-06-26T09:34:05;7.53;;;6.82;;
21426;SDS011;10874;49.452;11.050;2023-06-26T09:36:33;7.40;;;6.70;;
21426;SDS011;10874;49.452;11.050;2023-06-26T09:39:06;7.20;;;6.60;;
21426;SDS011;10874;49.452;11.050;2023-06-26T09:41:40;7.93;;;6.20;;
21426;SDS011;10874;49.452;11.050;2023-06-26T09:44:07;7.85;;;7.15;;
21426;SDS011;10874;49.452;11.050;2023-06-26T09:46:37;7.40;;;6.70;;
21426;SDS011;10874;49.452;11.050;2023-06-26T09:49:05;7.55;;;6.82;;
21426;SDS011;10874;49.452;11.050;2023-06-26T09:51:35;7.50;;;6.80;;
21426;SDS011;10874;49.452;11.050;2023-06-26T09:54:03;8.45;;;7.05;;
21426;SDS011;10874;49.452;11.050;2023-06-26T09:56:31;7.28;;;6.57;;
21426;SDS011;10874;49.452;11.050;2023-06-26T09:58:59;7.68;;;6.95;;
21426;SDS011;10874;49.452;11.050;2023-06-26T10:01:27;6.53;;;6.00;;
21426;SDS011;10874;49.452;11.050;2023-06-26T10:03:54;7.55;;;6.85;;
21426;SDS011;10874;49.452;11.050;2023-06-26T10:06:26;6.60;;;6.00;;
21426;SDS011;10874;49.452;11.050;2023-06-26T10:08:54;7.85;;;6.43;;
21426;SDS011;10874;49.452;11.050;2023-06-26T10:11:22;7.05;;;6.40;;
21426;SDS011;10874;49.452;11.050;2023-06-26T10:13:50;7.32;;;6.63;;
21426;SDS011;10874;49.452;11.050;2023-06-26T10:16:23;6.97;;;6.32;;
21426;SDS011;10874;49.452;11.050;2023-06-26T10:18:53;7.90;;;6.55;;
21426;SDS011;10874;49.452;11.050;2023-06-26T10:21:20;7.20;;;6.57;;
21426;SDS011;10874;49.452;11.050;2023-06-26T10:23:48;7.90;;;7.10;;
21426;SDS011;10874;49.452;11.050;2023-06-26T10:26:16;7.65;;;6.95;;
21426;SDS011;10874;49.452;11.050;2023-06-26T10:28:43;8.05;;;7.35;;
21426;SDS011;10874;49.452;11.050;2023-06-26T10:31:11;7.03;;;6.43;;
21426;SDS011;10874;49.452;11.050;2023-06-26T10:33:38;7.03;;;6.30;;
21426;SDS011;10874;49.452;11.050;2023-06-26T10:36:13;7.43;;;6.72;;
21426;SDS011;10874;49.452;11.050;2023-06-26T10:38:52;7.78;;;7.03;;
21426;SDS011;10874;49.452;11.050;2023-06-26T10:41:24;7.00;;;6.40;;
21426;SDS011;10874;49.452;11.050;2023-06-26T10:46:56;7.07;;;6.45;;
21426;SDS011;10874;49.452;11.050;2023-06-26T10:49:28;7.47;;;6.40;;
21426;SDS011;10874;49.452;11.050;2023-06-26T10:51:55;7.18;;;6.47;;
21426;SDS011;10874;49.452;11.050;2023-06-26T10:54:27;7.38;;;6.53;;
21426;SDS011;10874;49.452;11.050;2023-06-26T10:56:55;11.32;;;7.28;;
21426;SDS011;10874;49.452;11.050;2023-06-26T10:59:25;9.35;;;6.45;;
21426;SDS011;10874;49.452;11.050;2023-06-26T11:01:59;7.70;;;7.00;;
21426;SDS011;10874;49.452;11.050;2023-06-26T11:07:20;8.20;;;6.78;;
21426;SDS011;10874;49.452;11.050;2023-06-26T11:10:08;7.35;;;6.65;;
21426;SDS011;10874;49.452;11.050;2023-06-26T11:12:35;7.47;;;6.80;;
21426;SDS011;10874;49.452;11.050;2023-06-26T11:15:06;10.57;;;7.50;;
21426;SDS011;10874;49.452;11.050;2023-06-26T11:17:34;6.75;;;6.15;;
21426;SDS011;10874;49.452;11.050;2023-06-26T11:20:01;6.97;;;6.22;;
21426;SDS011;10874;49.452;11.050;2023-06-26T11:22:31;6.90;;;6.30;;
21426;SDS011;10874;49.452;11.050;2023-06-26T11:24:59;9.25;;;6.63;;
21426;SDS011;10874;49.452;11.050;2023-06-26T11:27:30;6.75;;;6.15;;
21426;SDS011;10874;49.452;11.050;2023-06-26T11:29:57;6.63;;;5.82;;
21426;SDS011;10874;49.452;11.050;2023-06-26T11:32:25;7.05;;;6.18;;
21426;SDS011;10874;49.452;11.050;2023-06-26T11:34:52;6.85;;;6.25;;
21426;SDS011;10874;49.452;11.050;2023-06-26T11:37:20;6.63;;;5.97;;
21426;SDS011;10874;49.452;11.050;2023-06-26T11:39:47;6.45;;;5.88;;
21426;SDS011;10874;49.452;11.050;2023-06-26T11:42:14;6.40;;;5.90;;
21426;SDS011;10874;49.452;11.050;2023-06-26T11:44:44;6.22;;;5.65;;
21426;SDS011;10874;49.452;11.050;2023-06-26T11:47:14;5.80;;;5.30;;
21426;SDS011;10874;49.452;11.050;2023-06-26T11:49:47;6.03;;;5.25;;
21426;SDS011;10874;49.452;11.050;2023-06-26T11:52:15;7.05;;;5.60;;
21426;SDS011;10874;49.452;11.050;2023-06-26T11:54:43;6.00;;;4.97;;
21426;SDS011;10874;49.452;11.050;2023-06-26T11:57:13;5.50;;;4.82;;
21426;SDS011;10874;49.452;11.050;2023-06-26T11:59:40;6.18;;;5.57;;
21426;SDS011;10874;49.452;11.050;2023-06-26T12:02:08;5.90;;;5.30;;
21426;SDS011;10874;49.452;11.050;2023-06-26T12:04:35;5.18;;;4.70;;
21426;SDS011;10874;49.452;11.050;2023-06-26T12:07:03;5.63;;;5.13;;
21426;SDS011;10874;49.452;11.050;2023-06-26T12:09:31;5.72;;;5.22;;
21426;SDS011;10874;49.452;11.050;2023-06-26T12:12:00;5.72;;;5.13;;
21426;SDS011;10874;49.452;11.050;2023-06-26T12:14:27;5.93;;;5.35;;
21426;SDS011;10874;49.452;11.050;2023-06-26T12:17:03;7.93;;;4.72;;
21426;SDS011;10874;49.452;11.050;2023-06-26T12:19:30;5.65;;;5.22;;
21426;SDS011;10874;49.452;11.050;2023-06-26T12:21:58;7.47;;;5.38;;
21426;SDS011;10874;49.452;11.050;2023-06-26T12:24:25;5.20;;;4.70;;
21426;SDS011;10874;49.452;11.050;2023-06-26T12:26:53;5.82;;;5.32;;
21426;SDS011;10874;49.452;11.050;2023-06-26T12:29:20;6.97;;;5.10;;
21426;SDS011;10874;49.452;11.050;2023-06-26T12:31:49;5.32;;;4.82;;
21426;SDS011;10874;49.452;11.050;2023-06-26T12:34:19;5.78;;;5.20;;
21426;SDS011;10874;49.452;11.050;2023-06-26T12:36:49;5.38;;;4.97;;
21426;SDS011;10874;49.452;11.050;2023-06-26T12:39:16;6.13;;;5.53;;
21426;SDS011;10874;49.452;11.050;2023-06-26T12:41:44;5.57;;;5.10;;
21426;SDS011;10874;49.452;11.050;2023-06-26T12:44:20;7.15;;;5.47;;
21426;SDS011;10874;49.452;11.050;2023-06-26T12:46:48;5.70;;;5.20;;
21426;SDS011;10874;49.452;11.050;2023-06-26T12:49:16;6.30;;;5.70;;
21426;SDS011;10874;49.452;11.050;2023-06-26T12:51:58;5.82;;;5.32;;
21426;SDS011;10874;49.452;11.050;2023-06-26T12:54:24;6.03;;;5.53;;
21426;SDS011;10874;49.452;11.050;2023-06-26T12:56:52;7.10;;;5.50;;
21426;SDS011;10874;49.452;11.050;2023-06-26T12:59:19;6.32;;;5.32;;
21426;SDS011;10874;49.452;11.050;2023-06-26T13:01:45;5.53;;;5.07;;
21426;SDS011;10874;49.452;11.050;2023-06-26T13:04:12;5.43;;;4.95;;
21426;SDS011;10874;49.452;11.050;2023-06-26T13:06:39;7.38;;;5.50;;
21426;SDS011;10874;49.452;11.050;2023-06-26T13:09:06;7.47;;;5.68;;
21426;SDS011;10874;49.452;11.050;2023-06-26T13:11:33;6.18;;;5.20;;
21426;SDS011;10874;49.452;11.050;2023-06-26T13:14:00;6.30;;;5.70;;
21426;SDS011;10874;49.452;11.050;2023-06-26T13:16:37;5.43;;;5.03;;
21426;SDS011;10874;49.452;11.050;2023-06-26T13:19:05;5.82;;;5.32;;
21426;SDS011;10874;49.452;11.050;2023-06-26T13:21:31;6.65;;;6.05;;
21426;SDS011;10874;49.452;11.050;2023-06-26T13:23:58;6.28;;;5.78;;
21426;SDS011;10874;49.452;11.050;2023-06-26T13:26:26;5.75;;;5.25;;
21426;SDS011;10874;49.452;11.050;2023-06-26T13:29:02;6.72;;;6.10;;
21426;SDS011;10874;49.452;11.050;2023-06-26T13:31:29;6.53;;;5.93;;
21426;SDS011;10874;49.452;11.050;2023-06-26T13:33:57;6.75;;;6.15;;
21426;SDS011;10874;49.452;11.050;2023-06-26T13:36:24;6.53;;;5.53;;
21426;SDS011;10874;49.452;11.050;2023-06-26T13:38:51;6.25;;;5.63;;
21426;SDS011;10874;49.452;11.050;2023-06-26T13:41:22;6.32;;;5.70;;
21426;SDS011;10874;49.452;11.050;2023-06-26T13:43:49;6.60;;;5.90;;
21426;SDS011;10874;49.452;11.050;2023-06-26T13:46:17;7.15;;;6.43;;
21426;SDS011;10874;49.452;11.050;2023-06-26T13:48:44;6.75;;;6.15;;
21426;SDS011;10874;49.452;11.050;2023-06-26T13:51:11;6.10;;;5.60;;
21426;SDS011;10874;49.452;11.050;2023-06-26T13:53:38;7.55;;;5.82;;
21426;SDS011;10874;49.452;11.050;2023-06-26T13:56:05;6.82;;;6.15;;
21426;SDS011;10874;49.452;11.050;2023-06-26T13:58:34;7.63;;;5.93;;
21426;SDS011;10874;49.452;11.050;2023-06-26T14:01:00;7.28;;;5.78;;
21426;SDS011;10874;49.452;11.050;2023-06-26T14:03:27;6.75;;;5.80;;
21426;SDS011;10874;49.452;11.050;2023-06-26T14:05:55;6.97;;;6.25;;
21426;SDS011;10874;49.452;11.050;2023-06-26T14:08:22;7.28;;;6.35;;
21426;SDS011;10874;49.452;11.050;2023-06-26T14:10:48;8.15;;;6.43;;
21426;SDS011;10874;49.452;11.050;2023-06-26T14:13:15;7.20;;;6.03;;
21426;SDS011;10874;49.452;11.050;2023-06-26T14:15:42;6.70;;;6.05;;
21426;SDS011;10874;49.452;11.050;2023-06-26T14:18:09;7.28;;;6.57;;
21426;SDS011;10874;49.452;11.050;2023-06-26T14:20:36;7.13;;;6.43;;
21426;SDS011;10874;49.452;11.050;2023-06-26T14:23:04;7.18;;;6.57;;
21426;SDS011;10874;49.452;11.050;2023-06-26T14:25:31;7.43;;;6.78;;
21426;SDS011;10874;49.452;11.050;2023-06-26T14:27:58;7.95;;;7.22;;
21426;SDS011;10874;49.452;11.050;2023-06-26T14:30:25;6.97;;;5.85;;
21426;SDS011;10874;49.452;11.050;2023-06-26T14:32:52;7.45;;;6.63;;
21426;SDS011;10874;49.452;11.050;2023-06-26T14:35:19;8.73;;;6.85;;
21426;SDS011;10874;49.452;11.050;2023-06-26T14:37:47;8.32;;;6.80;;
21426;SDS011;10874;49.452;11.050;2023-06-26T14:40:14;7.50;;;6.30;;
21426;SDS011;10874;49.452;11.050;2023-06-26T14:42:41;7.70;;;6.53;;